Time;durP1;ratioP1;P1;durP2;ratioP2;P2;SDS_P1;SDS_P2;PMS_P1;PMS_P2;Temp;Humidity;BMP_temperature;BMP_pressure;BME280_temperature;BME280_humidity;BME280_pressure;Samples;Min_cycle;Max_cycle;Signal;HPM_P1;HPM_P2
2021/08/05 00:02:11;;;;;;;1.60;1.17;;;;;;;16.75;100.00;99820.97;4989247;28;20464;-55
2021/08/05 00:04:38;;;;;;;0.40;0.30;;;;;;;16.45;100.00;99804.91;4995101;28;20465;-54
2021/08/05 00:07:05;;;;;;;0.40;0.30;;;;;;;16.53;100.00;99797.22;4981818;28;20494;-54
2021/08/05 00:09:33;;;;;;;0.40;0.20;;;;;;;16.44;100.00;99804.97;4994978;28;20942;-55
2021/08/05 00:11:59;;;;;;;0.40;0.20;;;;;;;16.37;100.00;99791.06;4993630;28;20931;-55
2021/08/05 00:14:26;;;;;;;0.40;0.27;;;;;;;16.38;100.00;99800.84;4983668;28;20507;-54
2021/08/05 00:16:53;;;;;;;0.40;0.20;;;;;;;16.38;100.00;99791.94;4993457;28;20942;-55
2021/08/05 00:19:19;;;;;;;0.40;0.20;;;;;;;16.11;100.00;99794.44;4992291;28;20511;-54
2021/08/05 00:21:46;;;;;;;0.40;0.30;;;;;;;16.16;100.00;99798.56;4993198;28;20485;-54
2021/08/05 00:24:12;;;;;;;1.50;1.40;;;;;;;16.02;100.00;99787.78;4983810;28;20448;-54
2021/08/05 00:26:39;;;;;;;0.40;0.20;;;;;;;16.28;100.00;99792.47;4994378;28;20873;-55
2021/08/05 00:29:06;;;;;;;0.40;0.20;;;;;;;16.35;100.00;99784.06;4986260;28;20524;-55
2021/08/05 00:31:32;;;;;;;0.40;0.20;;;;;;;16.37;100.00;99795.56;4990178;28;20478;-54
2021/08/05 00:34:00;;;;;;;0.40;0.20;;;;;;;16.47;100.00;99794.94;4994656;28;20609;-55
2021/08/05 00:36:26;;;;;;;0.40;0.20;;;;;;;16.50;100.00;99794.75;4981465;28;20462;-54
2021/08/05 00:38:53;;;;;;;0.40;0.40;;;;;;;16.53;100.00;99799.03;4994405;28;20938;-54
2021/08/05 00:41:19;;;;;;;0.40;0.20;;;;;;;16.52;100.00;99800.00;4994188;28;20453;-55
2021/08/05 00:43:47;;;;;;;0.40;0.30;;;;;;;16.41;100.00;99784.56;4987898;28;20501;-54
2021/08/05 00:46:14;;;;;;;0.40;0.20;;;;;;;16.48;100.00;99796.66;4984620;28;21205;-55
2021/08/05 00:48:41;;;;;;;0.40;0.27;;;;;;;16.54;100.00;99792.72;4991294;28;20454;-55
2021/08/05 00:51:08;;;;;;;0.40;0.20;;;;;;;16.53;100.00;99788.31;4994050;28;20959;-54
2021/08/05 00:53:35;;;;;;;0.40;0.20;;;;;;;16.46;100.00;99789.66;4990542;28;20447;-55
2021/08/05 00:56:01;;;;;;;0.43;0.30;;;;;;;16.36;100.00;99785.81;4984692;28;20489;-54
2021/08/05 00:58:28;;;;;;;0.40;0.20;;;;;;;16.57;100.00;99781.78;4994122;28;20428;-55
2021/08/05 01:01:04;;;;;;;0.40;0.20;;;;;;;16.59;100.00;99780.75;4984130;28;20497;-54
2021/08/05 01:03:35;;;;;;;0.40;0.20;;;;;;;16.56;100.00;99772.03;4992584;28;20931;-55
2021/08/05 01:06:08;;;;;;;0.40;0.20;;;;;;;16.49;100.00;99771.53;4993815;28;20508;-55
2021/08/05 01:08:41;;;;;;;0.40;0.20;;;;;;;16.42;100.00;99762.13;4981395;28;20524;-54
2021/08/05 01:11:19;;;;;;;3.13;0.70;;;;;;;16.55;100.00;99762.25;4980647;28;20425;-55
2021/08/05 01:13:54;;;;;;;0.40;0.20;;;;;;;16.61;100.00;99767.25;4992661;28;20512;-55
2021/08/05 01:16:25;;;;;;;0.40;0.30;;;;;;;16.60;100.00;99768.22;4979554;28;20454;-55
2021/08/05 01:18:57;;;;;;;0.40;0.20;;;;;;;16.33;100.00;99762.72;4993661;28;20445;-54
2021/08/05 01:21:48;;;;;;;0.40;0.20;;;;;;;16.47;100.00;99752.00;4994380;28;20432;-55
2021/08/05 01:24:19;;;;;;;0.40;0.20;;;;;;;16.41;100.00;99762.22;4980713;28;20450;-55
2021/08/05 01:26:46;;;;;;;0.40;0.30;;;;;;;16.37;100.00;99753.50;4993572;28;20450;-55
2021/08/05 01:29:24;;;;;;;0.40;0.20;;;;;;;16.54;100.00;99753.34;4989138;28;20446;-55
2021/08/05 01:31:52;;;;;;;0.57;0.57;;;;;;;16.45;100.00;99753.91;4985206;28;20449;-55
2021/08/05 01:34:21;;;;;;;0.40;0.20;;;;;;;16.42;100.00;99753.22;4993440;28;20473;-54
2021/08/05 01:36:49;;;;;;;0.40;0.20;;;;;;;16.43;100.00;99758.50;4981996;28;20501;-54
2021/08/05 01:39:16;;;;;;;0.40;0.40;;;;;;;16.36;100.00;99754.47;4991995;28;20500;-54
2021/08/05 01:41:43;;;;;;;0.50;0.50;;;;;;;16.38;100.00;99760.59;4993241;28;20484;-55
2021/08/05 01:44:12;;;;;;;0.40;0.30;;;;;;;16.42;100.00;99769.31;4980733;28;20489;-55
2021/08/05 01:46:39;;;;;;;0.40;0.30;;;;;;;16.30;100.00;99763.75;4980389;28;20429;-55
2021/08/05 01:49:07;;;;;;;0.40;0.20;;;;;;;16.29;100.00;99763.84;4993336;28;20460;-55
2021/08/05 01:51:34;;;;;;;0.40;0.30;;;;;;;16.05;100.00;99759.97;4992926;28;20512;-54
2021/08/05 01:54:01;;;;;;;0.40;0.20;;;;;;;16.08;100.00;99754.41;4985267;28;20501;-55
2021/08/05 01:56:28;;;;;;;0.40;0.20;;;;;;;15.95;100.00;99760.50;4987621;28;20473;-54
2021/08/05 01:58:57;;;;;;;0.40;0.30;;;;;;;16.10;100.00;99756.03;4991909;28;21003;-54
2021/08/05 02:01:24;;;;;;;0.40;0.20;;;;;;;15.99;100.00;99745.09;4980298;28;20455;-54
2021/08/05 02:03:57;;;;;;;4.93;2.17;;;;;;;15.70;100.00;99750.34;4992943;28;20475;-54
2021/08/05 02:06:25;;;;;;;0.40;0.20;;;;;;;15.54;100.00;99737.91;4990510;28;20465;-54
2021/08/05 02:08:58;;;;;;;0.40;0.20;;;;;;;15.31;100.00;99734.72;4982681;28;20453;-54
2021/08/05 02:11:27;;;;;;;0.40;0.20;;;;;;;15.63;100.00;99732.06;4992786;28;20917;-54
2021/08/05 02:13:56;;;;;;;0.40;0.20;;;;;;;15.61;100.00;99737.47;4986080;28;20875;-55
2021/08/05 02:16:25;;;;;;;0.40;0.20;;;;;;;15.67;100.00;99737.13;4979947;28;20432;-55
2021/08/05 02:18:52;;;;;;;0.40;0.30;;;;;;;15.63;100.00;99734.75;4992943;28;20420;-54
2021/08/05 02:21:22;;;;;;;0.40;0.23;;;;;;;15.56;100.00;99736.00;4987671;28;20505;-54
2021/08/05 02:23:51;;;;;;;0.40;0.20;;;;;;;15.47;100.00;99733.84;4985275;28;20529;-55
2021/08/05 02:26:19;;;;;;;0.40;0.20;;;;;;;15.53;100.00;99730.81;4992898;28;20506;-55
2021/08/05 02:28:47;;;;;;;0.40;0.20;;;;;;;15.43;100.00;99722.44;4980423;28;20481;-55
2021/08/05 02:31:14;;;;;;;0.40;0.20;;;;;;;15.55;100.00;99728.91;4980037;28;20777;-55
2021/08/05 02:33:42;;;;;;;0.50;0.40;;;;;;;15.56;100.00;99726.16;4979534;28;20970;-55
2021/08/05 02:36:09;;;;;;;0.40;0.20;;;;;;;15.63;100.00;99732.94;4992720;28;20427;-55
2021/08/05 02:38:36;;;;;;;0.40;0.20;;;;;;;15.52;100.00;99721.94;4992159;28;20449;-55
2021/08/05 02:41:05;;;;;;;0.40;0.20;;;;;;;15.46;100.00;99722.25;4980663;28;20453;-55
2021/08/05 02:43:33;;;;;;;0.40;0.20;;;;;;;15.45;100.00;99722.34;4992452;28;20489;-55
2021/08/05 02:46:00;;;;;;;0.40;0.20;;;;;;;15.30;100.00;99729.47;4984947;28;20849;-54
2021/08/05 02:48:28;;;;;;;0.67;0.67;;;;;;;15.20;100.00;99713.03;4987302;28;20887;-54
2021/08/05 02:50:58;;;;;;;0.40;0.20;;;;;;;15.15;100.00;99724.97;4992639;28;20454;-55
2021/08/05 02:53:27;;;;;;;0.40;0.20;;;;;;;15.25;100.00;99720.84;4990071;28;20673;-55
2021/08/05 02:55:54;;;;;;;1.90;0.97;;;;;;;15.11;100.00;99719.81;4982338;28;20512;-55
2021/08/05 02:58:21;;;;;;;0.40;0.20;;;;;;;15.11;100.00;99721.63;4992418;28;20931;-55
2021/08/05 03:00:48;;;;;;;0.40;0.40;;;;;;;14.85;100.00;99722.19;4982683;28;20455;-54
2021/08/05 03:03:21;;;;;;;0.40;0.20;;;;;;;14.75;100.00;99716.50;4989069;28;20489;-54
2021/08/05 03:05:52;;;;;;;0.40;0.20;;;;;;;15.01;100.00;99710.56;4994008;28;20454;-54
2021/08/05 03:08:18;;;;;;;0.40;0.20;;;;;;;15.11;100.00;99714.44;4982906;28;20512;-55
2021/08/05 03:10:46;;;;;;;0.40;0.20;;;;;;;15.07;100.00;99710.19;4996009;28;20958;-55
2021/08/05 03:13:12;;;;;;;0.40;0.20;;;;;;;15.13;100.00;99706.31;4990915;28;20482;-54
2021/08/05 03:15:39;;;;;;;0.40;0.30;;;;;;;15.10;100.00;99702.00;4982581;28;20474;-54
2021/08/05 03:18:06;;;;;;;1.10;1.10;;;;;;;15.17;100.00;99702.50;4994645;28;20487;-54
2021/08/05 03:20:32;;;;;;;0.40;0.20;;;;;;;15.21;100.00;99703.19;4996041;28;20453;-54
2021/08/05 03:22:59;;;;;;;0.40;0.20;;;;;;;15.16;100.00;99697.25;4982551;28;20536;-55
2021/08/05 03:25:27;;;;;;;0.40;0.20;;;;;;;15.17;100.00;99701.66;4995742;28;20473;-54
2021/08/05 03:27:54;;;;;;;0.40;0.20;;;;;;;15.24;100.00;99700.38;4989843;28;20504;-55
2021/08/05 03:30:21;;;;;;;0.40;0.20;;;;;;;15.23;100.00;99690.63;4988586;28;20453;-55
2021/08/05 03:32:48;;;;;;;0.57;0.57;;;;;;;15.17;100.00;99686.44;4995508;28;20450;-54
2021/08/05 03:35:14;;;;;;;0.40;0.20;;;;;;;15.25;100.00;99697.59;4982695;28;20821;-54
2021/08/05 03:37:41;;;;;;;0.40;0.20;;;;;;;15.08;100.00;99695.88;4994348;28;20942;-54
2021/08/05 03:40:08;;;;;;;0.40;0.20;;;;;;;15.14;100.00;99688.44;4995364;28;20450;-55
2021/08/05 03:42:35;;;;;;;0.40;0.30;;;;;;;15.19;100.00;99684.53;4982517;28;20531;-55
2021/08/05 03:45:02;;;;;;;0.40;0.30;;;;;;;15.30;100.00;99690.16;4995406;28;20990;-54
2021/08/05 03:47:30;;;;;;;0.40;0.20;;;;;;;15.13;100.00;99694.75;4982692;28;20449;-54
2021/08/05 03:49:56;;;;;;;0.40;0.20;;;;;;;15.04;100.00;99697.00;4982144;28;20956;-54
2021/08/05 03:52:23;;;;;;;0.40;0.40;;;;;;;15.10;100.00;99707.38;4995375;28;20457;-54
2021/08/05 03:55:01;;;;;;;0.40;0.20;;;;;;;15.26;100.00;99707.34;4982216;28;20474;-54
2021/08/05 03:57:28;;;;;;;0.40;0.30;;;;;;;15.28;100.00;99709.94;4995170;28;20962;-55
2021/08/05 03:59:54;;;;;;;0.60;0.60;;;;;;;15.28;100.00;99715.31;4992651;28;20492;-54
2021/08/05 04:02:21;;;;;;;1.80;0.50;;;;;;;15.23;100.00;99709.34;4984618;28;20492;-54
2021/08/05 04:04:47;;;;;;;0.40;0.30;;;;;;;15.03;100.00;99703.28;4994892;28;20508;-55
2021/08/05 04:07:18;;;;;;;0.40;0.30;;;;;;;15.14;100.00;99704.50;4985355;28;20477;-54
2021/08/05 04:09:45;;;;;;;0.40;0.20;;;;;;;15.17;100.00;99702.50;4991604;28;20449;-54
2021/08/05 04:12:11;;;;;;;0.60;0.60;;;;;;;15.32;100.00;99708.81;4994958;28;20447;-54
2021/08/05 04:14:38;;;;;;;0.40;0.20;;;;;;;15.44;100.00;99710.78;4985216;28;20873;-54
2021/08/05 04:17:05;;;;;;;0.40;0.20;;;;;;;15.49;100.00;99703.38;4983513;28;20938;-55
2021/08/05 04:19:31;;;;;;;0.40;0.20;;;;;;;15.45;100.00;99696.44;4994840;28;20450;-54
2021/08/05 04:21:58;;;;;;;0.40;0.20;;;;;;;15.22;100.00;99707.63;4985004;28;20455;-54
2021/08/05 04:24:24;;;;;;;0.40;0.40;;;;;;;15.11;100.00;99698.38;4991596;28;20493;-55
2021/08/05 04:26:51;;;;;;;0.40;0.20;;;;;;;14.97;100.00;99698.31;4994631;28;20565;-55
2021/08/05 04:29:18;;;;;;;0.40;0.40;;;;;;;15.22;100.00;99694.25;4981548;28;20457;-54
2021/08/05 04:31:44;;;;;;;0.40;0.20;;;;;;;15.20;100.00;99698.78;4994810;28;20480;-54
2021/08/05 04:34:12;;;;;;;0.40;0.20;;;;;;;14.98;100.00;99693.81;4990704;28;20999;-54
2021/08/05 04:36:43;;;;;;;0.40;0.20;;;;;;;14.96;100.00;99696.56;4986275;28;20484;-54
2021/08/05 04:39:10;;;;;;;0.40;0.20;;;;;;;15.03;100.00;99699.75;4994650;28;20449;-54
2021/08/05 04:41:36;;;;;;;0.60;0.60;;;;;;;15.03;100.00;99695.25;4994460;28;21037;-54
2021/08/05 04:44:03;;;;;;;0.40;0.20;;;;;;;15.22;100.00;99695.09;4981816;28;20516;-54
2021/08/05 04:46:30;;;;;;;0.60;0.60;;;;;;;15.39;100.00;99699.47;4982643;28;20451;-54
2021/08/05 04:48:56;;;;;;;0.40;0.20;;;;;;;15.40;100.00;99701.22;4993445;28;20453;-54
2021/08/05 04:51:28;;;;;;;0.40;0.20;;;;;;;15.43;100.00;99697.47;4994110;28;20540;-54
2021/08/05 04:53:55;;;;;;;0.77;0.77;;;;;;;15.50;100.00;99694.38;4987948;28;20902;-54
2021/08/05 04:56:21;;;;;;;0.50;0.50;;;;;;;15.56;100.00;99698.50;4987747;28;20431;-54
2021/08/05 04:58:48;;;;;;;1.03;1.03;;;;;;;15.64;100.00;99699.81;4974851;28;20482;-54
2021/08/05 05:01:14;;;;;;;0.40;0.20;;;;;;;15.65;100.00;99690.81;4988137;28;20424;-55
2021/08/05 05:03:41;;;;;;;0.40;0.20;;;;;;;15.72;100.00;99695.81;4993708;28;20508;-54
2021/08/05 05:06:08;;;;;;;0.40;0.20;;;;;;;15.69;100.00;99703.06;4980543;28;20493;-54
2021/08/05 05:08:35;;;;;;;0.40;0.20;;;;;;;15.71;100.00;99700.31;4993946;28;20446;-54
2021/08/05 05:11:01;;;;;;;0.40;0.30;;;;;;;15.80;100.00;99690.88;4993591;28;20485;-54
2021/08/05 05:13:29;;;;;;;0.40;0.20;;;;;;;15.88;100.00;99691.25;4981431;28;20445;-54
2021/08/05 05:15:55;;;;;;;0.87;0.87;;;;;;;15.90;100.00;99694.72;4980726;28;20463;-54
2021/08/05 05:18:25;;;;;;;0.40;0.30;;;;;;;15.98;100.00;99700.47;4993642;28;20484;-55
2021/08/05 05:20:53;;;;;;;0.40;0.20;;;;;;;16.14;100.00;99700.41;4992787;28;20483;-55
2021/08/05 05:23:20;;;;;;;0.60;0.57;;;;;;;16.13;100.00;99694.19;4974456;28;20486;-54
2021/08/05 05:25:47;;;;;;;0.40;0.20;;;;;;;16.20;100.00;99695.53;4988867;28;20939;-54
2021/08/05 05:28:14;;;;;;;0.40;0.30;;;;;;;16.20;100.00;99702.72;4992163;28;20452;-54
2021/08/05 05:30:41;;;;;;;0.40;0.30;;;;;;;16.21;100.00;99696.41;4979794;28;20509;-54
2021/08/05 05:33:08;;;;;;;0.40;0.20;;;;;;;16.26;100.00;99694.28;4993461;28;20496;-54
2021/08/05 05:35:35;;;;;;;0.40;0.20;;;;;;;16.25;100.00;99697.94;4991094;28;20903;-55
2021/08/05 05:38:04;;;;;;;0.40;0.20;;;;;;;16.23;100.00;99689.97;4983057;28;20868;-54
2021/08/05 05:40:31;;;;;;;0.40;0.30;;;;;;;16.33;100.00;99687.59;4993251;28;20457;-54
2021/08/05 05:43:00;;;;;;;0.40;0.20;;;;;;;16.27;100.00;99683.47;4982701;28;20468;-54
2021/08/05 05:45:27;;;;;;;0.40;0.20;;;;;;;16.41;100.00;99681.75;4986722;28;20470;-54
2021/08/05 05:47:54;;;;;;;1.60;1.50;;;;;;;16.41;100.00;99681.75;4983990;28;20802;-54
2021/08/05 05:50:21;;;;;;;3.90;2.67;;;;;;;16.40;100.00;99677.34;4993338;28;20484;-54
2021/08/05 05:52:48;;;;;;;0.40;0.20;;;;;;;16.63;100.00;99679.44;4993284;28;20520;-54
2021/08/05 05:55:15;;;;;;;0.40;0.20;;;;;;;16.82;100.00;99688.09;4980114;28;20477;-54
2021/08/05 05:57:42;;;;;;;0.63;0.63;;;;;;;16.97;100.00;99680.00;4993270;28;20449;-54
2021/08/05 06:00:10;;;;;;;0.40;0.20;;;;;;;17.12;100.00;99690.59;4989195;28;20498;-54
2021/08/05 06:02:37;;;;;;;0.40;0.20;;;;;;;17.42;100.00;99698.50;4984108;28;20457;-54
2021/08/05 06:05:05;;;;;;;0.43;0.43;;;;;;;17.25;100.00;99696.03;4992893;28;20521;-54
2021/08/05 06:07:41;;;;;;;0.50;0.40;;;;;;;17.43;100.00;99693.97;4982205;28;20462;-54
2021/08/05 06:10:10;;;;;;;0.40;0.30;;;;;;;17.53;100.00;99691.53;4992514;28;20450;-54
2021/08/05 06:12:37;;;;;;;2.10;2.00;;;;;;;17.45;100.00;99697.44;4992138;28;20453;-54
2021/08/05 06:15:04;;;;;;;0.40;0.20;;;;;;;17.57;100.00;99698.44;4986421;28;20971;-54
2021/08/05 06:17:30;;;;;;;0.40;0.20;;;;;;;17.64;100.00;99692.53;4992897;28;20453;-54
2021/08/05 06:19:57;;;;;;;0.40;0.20;;;;;;;17.94;100.00;99695.00;4980431;28;20451;-54
2021/08/05 06:22:23;;;;;;;0.40;0.20;;;;;;;18.32;100.00;99689.66;4992829;28;20471;-54
2021/08/05 06:24:50;;;;;;;0.40;0.30;;;;;;;18.11;100.00;99701.94;4985618;28;20498;-54
2021/08/05 06:27:17;;;;;;;0.40;0.33;;;;;;;18.03;100.00;99693.50;4987061;28;20459;-54
2021/08/05 06:29:43;;;;;;;0.40;0.20;;;;;;;18.06;100.00;99698.66;4992905;28;20456;-54
2021/08/05 06:32:10;;;;;;;0.50;0.40;;;;;;;18.13;100.00;99704.50;4979901;28;20454;-55
2021/08/05 06:34:36;;;;;;;0.40;0.20;;;;;;;18.32;100.00;99703.09;4992801;28;20466;-54
2021/08/05 06:37:03;;;;;;;3.33;1.60;;;;;;;18.43;100.00;99705.06;4991544;28;20482;-54
2021/08/05 06:39:30;;;;;;;0.50;0.50;;;;;;;18.22;100.00;99715.47;4980978;28;20498;-55
2021/08/05 06:41:56;;;;;;;0.40;0.20;;;;;;;18.39;100.00;99706.25;4995648;28;20507;-54
2021/08/05 06:44:23;;;;;;;0.40;0.30;;;;;;;18.45;100.00;99705.81;4996459;28;20463;-55
2021/08/05 06:46:49;;;;;;;0.50;0.40;;;;;;;18.71;100.00;99703.13;4983346;28;20452;-54
2021/08/05 06:49:16;;;;;;;0.70;0.70;;;;;;;18.81;100.00;99717.66;4996566;28;20432;-54
2021/08/05 06:51:43;;;;;;;0.40;0.20;;;;;;;18.72;100.00;99702.16;4996312;28;20482;-54
2021/08/05 06:54:09;;;;;;;0.40;0.20;;;;;;;18.56;100.00;99695.16;4988255;28;20498;-54
2021/08/05 06:56:40;;;;;;;0.40;0.20;;;;;;;18.61;100.00;99703.75;4992122;28;20449;-54
2021/08/05 06:59:06;;;;;;;0.40;0.20;;;;;;;18.69;100.00;99699.69;4996447;28;20829;-55
2021/08/05 07:01:34;;;;;;;1.37;1.37;;;;;;;18.89;100.00;99704.50;4982781;28;20840;-54
2021/08/05 07:04:02;;;;;;;2.63;0.70;;;;;;;18.89;100.00;99699.09;4996114;28;20472;-55
2021/08/05 07:06:28;;;;;;;0.40;0.20;;;;;;;18.85;100.00;99697.63;4993273;28;21116;-54
2021/08/05 07:08:55;;;;;;;0.40;0.20;;;;;;;18.89;100.00;99697.28;4985698;28;20427;-54
2021/08/05 07:11:22;;;;;;;0.53;0.47;;;;;;;18.79;100.00;99695.38;4996150;28;20436;-55
2021/08/05 07:13:48;;;;;;;0.40;0.20;;;;;;;19.09;100.00;99705.75;4989630;28;20527;-54
2021/08/05 07:16:15;;;;;;;0.40;0.30;;;;;;;19.17;100.00;99701.50;4982719;28;20456;-55
2021/08/05 07:18:42;;;;;;;0.40;0.30;;;;;;;19.20;100.00;99709.38;4995911;28;20942;-55
2021/08/05 07:21:09;;;;;;;0.50;0.30;;;;;;;19.29;100.00;99704.28;4993001;28;20461;-54
2021/08/05 07:23:35;;;;;;;0.40;0.20;;;;;;;19.53;100.00;99703.31;4986048;28;20908;-54
2021/08/05 07:26:02;;;;;;;0.50;0.37;;;;;;;19.52;100.00;99695.34;4995690;28;20914;-54
2021/08/05 07:28:29;;;;;;;0.40;0.30;;;;;;;19.63;100.00;99697.28;4985828;28;20857;-54
2021/08/05 07:30:57;;;;;;;0.40;0.30;;;;;;;19.78;100.00;99686.19;4991863;28;20434;-55
2021/08/05 07:33:24;;;;;;;0.40;0.20;;;;;;;20.38;100.00;99685.09;4995591;28;20478;-55
2021/08/05 07:35:51;;;;;;;0.40;0.20;;;;;;;19.98;99.21;99689.16;4995461;28;20428;-55
2021/08/05 07:38:18;;;;;;;0.43;0.30;;;;;;;20.46;97.40;99680.97;4995539;28;20459;-55
2021/08/05 07:40:44;;;;;;;0.47;0.30;;;;;;;20.25;98.94;99687.03;4991239;28;20429;-54
2021/08/05 07:43:11;;;;;;;0.40;0.30;;;;;;;20.72;97.85;99681.59;4976162;28;20427;-54
2021/08/05 07:45:38;;;;;;;0.40;0.30;;;;;;;21.26;94.70;99679.81;4988899;28;20508;-55
2021/08/05 07:48:05;;;;;;;0.40;0.20;;;;;;;21.53;94.06;99676.66;4987613;28;20484;-55
2021/08/05 07:50:32;;;;;;;0.70;0.50;;;;;;;21.20;95.60;99679.44;4995163;28;20428;-55
2021/08/05 07:52:58;;;;;;;0.40;0.20;;;;;;;21.50;94.15;99679.59;4994374;28;20482;-54
2021/08/05 07:55:25;;;;;;;0.40;0.20;;;;;;;21.22;94.32;99682.84;4976881;28;20550;-55
2021/08/05 07:57:52;;;;;;;0.40;0.20;;;;;;;21.28;94.19;99682.41;4987776;28;20519;-54
2021/08/05 08:00:20;;;;;;;1.17;1.07;;;;;;;21.10;91.80;99678.44;4994901;28;20453;-55
2021/08/05 08:02:46;;;;;;;0.40;0.30;;;;;;;21.37;93.76;99673.50;4983055;28;20454;-55
2021/08/05 08:05:14;;;;;;;2.10;1.50;;;;;;;21.11;92.79;99663.97;4994188;28;20580;-55
2021/08/05 08:07:42;;;;;;;0.70;0.70;;;;;;;21.38;93.92;99668.97;4995287;28;20876;-54
2021/08/05 08:10:11;;;;;;;0.60;0.60;;;;;;;21.42;93.66;99671.28;4982139;28;20428;-55
2021/08/05 08:12:38;;;;;;;0.40;0.20;;;;;;;21.68;92.01;99674.53;4981697;28;20505;-55
2021/08/05 08:15:06;;;;;;;0.50;0.50;;;;;;;21.61;90.41;99672.44;4988101;28;20474;-55
2021/08/05 08:17:32;;;;;;;1.43;0.77;;;;;;;21.98;89.68;99664.78;4988836;28;20507;-55
2021/08/05 08:19:59;;;;;;;0.60;0.57;;;;;;;22.60;87.68;99666.56;4995036;28;20428;-55
2021/08/05 08:22:26;;;;;;;0.40;0.30;;;;;;;22.32;89.36;99660.03;4981812;28;20505;-55
2021/08/05 08:24:52;;;;;;;0.40;0.20;;;;;;;22.44;88.14;99659.81;4994564;28;20487;-55
2021/08/05 08:27:19;;;;;;;0.40;0.30;;;;;;;22.21;89.83;99654.72;4993341;28;21317;-55
2021/08/05 08:29:46;;;;;;;0.40;0.30;;;;;;;22.65;87.96;99657.06;4983053;28;20453;-55
2021/08/05 08:32:13;;;;;;;0.40;0.30;;;;;;;22.14;85.89;99649.81;4994475;28;20453;-54
2021/08/05 08:34:39;;;;;;;0.40;0.20;;;;;;;21.92;86.39;99658.03;4986889;28;20971;-55
2021/08/05 08:37:06;;;;;;;0.40;0.20;;;;;;;22.18;87.78;99655.81;4989541;28;20428;-55
2021/08/05 08:39:33;;;;;;;0.40;0.30;;;;;;;22.03;87.34;99657.97;4994884;28;20511;-55
2021/08/05 08:42:00;;;;;;;0.50;0.40;;;;;;;22.18;85.96;99651.25;4979976;28;20485;-55
2021/08/05 08:44:27;;;;;;;0.57;0.57;;;;;;;22.17;86.49;99646.81;4983382;28;21027;-55
2021/08/05 08:46:54;;;;;;;0.40;0.30;;;;;;;22.38;86.58;99640.53;4980989;28;20478;-55
2021/08/05 08:49:25;;;;;;;0.40;0.30;;;;;;;22.80;85.06;99644.00;4994506;28;20450;-55
2021/08/05 08:51:55;;;;;;;4.63;1.07;;;;;;;22.40;84.87;99633.13;4994201;28;20457;-55
2021/08/05 08:54:22;;;;;;;0.40;0.20;;;;;;;22.89;85.30;99628.78;4984363;28;20505;-55
2021/08/05 08:56:52;;;;;;;0.90;0.90;;;;;;;22.30;82.49;99634.94;4991181;28;20820;-55
2021/08/05 08:59:21;;;;;;;0.50;0.47;;;;;;;22.41;85.88;99632.13;4994040;28;20446;-55
2021/08/05 09:01:48;;;;;;;0.50;0.50;;;;;;;22.73;81.55;99640.97;4990111;28;20580;-55
2021/08/05 09:04:16;;;;;;;0.40;0.30;;;;;;;22.90;80.85;99636.78;4983704;28;20572;-55
2021/08/05 09:06:48;;;;;;;0.40;0.30;;;;;;;22.86;79.63;99629.91;4993747;28;20946;-55
2021/08/05 09:09:15;;;;;;;0.43;0.33;;;;;;;23.02;80.11;99626.66;4982506;28;20461;-55
2021/08/05 09:11:42;;;;;;;0.73;0.73;;;;;;;23.05;79.59;99619.13;4992460;28;20523;-55
2021/08/05 09:14:10;;;;;;;0.40;0.20;;;;;;;23.58;76.98;99621.50;4993935;28;20448;-55
2021/08/05 09:16:37;;;;;;;0.40;0.20;;;;;;;23.28;75.99;99613.44;4988380;28;20455;-55
2021/08/05 09:19:13;;;;;;;0.40;0.20;;;;;;;23.81;75.20;99619.31;4986546;28;20420;-55
2021/08/05 09:21:54;;;;;;;0.50;0.50;;;;;;;23.66;74.57;99619.91;4981594;28;20441;-55
2021/08/05 09:24:27;;;;;;;0.40;0.20;;;;;;;23.77;75.50;99615.19;4980092;28;20996;-55
2021/08/05 09:26:58;;;;;;;0.63;0.63;;;;;;;23.69;75.35;99608.75;4993844;28;20427;-55
2021/08/05 09:29:25;;;;;;;1.27;1.17;;;;;;;23.60;73.97;99613.22;4993791;28;20416;-55
2021/08/05 09:31:54;;;;;;;0.40;0.20;;;;;;;23.50;75.59;99604.19;4982931;28;20814;-55
2021/08/05 09:34:39;;;;;;;0.40;0.20;;;;;;;22.94;79.09;99604.84;4991210;28;20516;-54
2021/08/05 09:37:09;;;;;;;0.40;0.20;;;;;;;22.92;80.24;99610.41;4992933;28;20511;-55
2021/08/05 09:39:39;;;;;;;0.40;0.20;;;;;;;23.08;78.73;99611.72;4981623;28;20453;-55
2021/08/05 09:42:08;;;;;;;0.40;0.20;;;;;;;22.84;82.23;99617.50;4993272;28;20500;-55
2021/08/05 09:44:38;;;;;;;0.40;0.20;;;;;;;23.07;80.52;99610.84;4993238;28;20533;-55
2021/08/05 09:47:12;;;;;;;0.80;0.70;;;;;;;23.30;79.49;99601.47;4980222;28;20429;-55
2021/08/05 09:49:59;;;;;;;0.40;0.20;;;;;;;23.66;77.00;99606.34;4993666;28;20469;-55
2021/08/05 09:52:27;;;;;;;0.40;0.30;;;;;;;23.51;76.11;99595.03;4995259;28;20457;-55
2021/08/05 09:54:54;;;;;;;0.40;0.30;;;;;;;23.67;75.81;99602.63;4992991;28;20451;-55
2021/08/05 09:57:25;;;;;;;0.40;0.30;;;;;;;23.73;73.32;99602.06;4985176;28;20492;-55
2021/08/05 09:59:59;;;;;;;0.40;0.20;;;;;;;23.83;73.62;99609.16;4988634;28;20457;-55
2021/08/05 10:02:38;;;;;;;0.40;0.20;;;;;;;23.91;72.18;99603.03;4992987;28;20449;-55
2021/08/05 10:05:11;;;;;;;0.60;0.60;;;;;;;23.87;72.27;99593.47;4979999;28;20500;-54
2021/08/05 10:07:43;;;;;;;0.40;0.30;;;;;;;23.30;73.03;99596.06;4992528;28;20833;-55
2021/08/05 10:10:10;;;;;;;0.40;0.30;;;;;;;23.88;73.01;99596.03;4979713;28;20453;-55
2021/08/05 10:12:38;;;;;;;0.40;0.23;;;;;;;23.75;71.74;99584.63;4980172;28;20517;-55
2021/08/05 10:15:04;;;;;;;0.70;0.70;;;;;;;23.72;73.05;99597.63;4979963;28;20511;-55
2021/08/05 10:17:32;;;;;;;0.40;0.27;;;;;;;23.77;75.07;99590.75;4986399;28;20453;-55
2021/08/05 10:20:02;;;;;;;0.40;0.20;;;;;;;23.59;76.20;99590.66;4979906;28;20436;-55
2021/08/05 10:22:29;;;;;;;0.50;0.40;;;;;;;23.61;77.37;99595.94;4979666;28;20458;-55
2021/08/05 10:24:57;;;;;;;0.40;0.20;;;;;;;23.10;76.21;99597.00;4992886;28;20523;-55
2021/08/05 10:27:24;;;;;;;0.40;0.27;;;;;;;23.21;79.96;99591.47;4991972;28;20834;-55
2021/08/05 10:29:51;;;;;;;0.40;0.20;;;;;;;23.13;84.41;99585.03;4980794;28;20424;-55
2021/08/05 10:32:20;;;;;;;0.40;0.20;;;;;;;22.61;87.72;99596.00;4992770;28;20519;-55
2021/08/05 10:34:47;;;;;;;0.50;0.40;;;;;;;22.61;84.92;99584.31;4984831;28;20517;-54
2021/08/05 10:37:15;;;;;;;0.73;0.73;;;;;;;22.52;87.89;99577.03;4987686;28;20453;-55
2021/08/05 10:39:43;;;;;;;0.40;0.30;;;;;;;22.72;82.95;99567.94;4992664;28;20959;-55
2021/08/05 10:42:17;;;;;;;0.40;0.23;;;;;;;22.95;82.83;99563.19;4979754;28;20525;-55
2021/08/05 10:44:46;;;;;;;0.77;0.77;;;;;;;23.02;82.40;99561.59;4992672;28;20460;-55
2021/08/05 10:47:44;;;;;;;0.40;0.20;;;;;;;23.40;82.08;99551.78;4979544;28;20875;-55
2021/08/05 10:50:14;;;;;;;0.40;0.20;;;;;;;24.01;81.56;99546.00;4988458;28;20432;-55
2021/08/05 10:52:49;;;;;;;0.50;0.43;;;;;;;23.94;74.76;99551.13;4992655;28;20461;-55
2021/08/05 10:55:36;;;;;;;0.40;0.20;;;;;;;24.03;75.15;99552.13;4979567;28;20497;-55
2021/08/05 10:58:19;;;;;;;0.40;0.20;;;;;;;24.50;75.12;99547.50;4992391;28;20480;-55
2021/08/05 11:00:52;;;;;;;0.50;0.30;;;;;;;24.14;74.07;99547.38;4984005;28;20420;-55
2021/08/05 11:03:31;;;;;;;0.40;0.27;;;;;;;23.85;76.26;99542.03;4989408;28;20536;-55
2021/08/05 11:05:59;;;;;;;0.40;0.27;;;;;;;24.66;72.66;99546.84;4992545;28;20463;-55
2021/08/05 11:08:28;;;;;;;0.73;0.73;;;;;;;24.47;69.46;99540.53;4979443;28;20424;-55
2021/08/05 11:11:20;;;;;;;0.40;0.20;;;;;;;24.61;71.92;99538.31;4992568;28;20425;-55
2021/08/05 11:13:59;;;;;;;7.27;2.03;;;;;;;24.10;71.24;99526.06;4975925;28;20850;-55
2021/08/05 11:16:51;;;;;;;0.40;0.30;;;;;;;24.25;71.33;99521.84;4978032;28;20419;-55
2021/08/05 11:19:25;;;;;;;0.40;0.30;;;;;;;24.37;71.12;99520.69;4992629;28;20488;-55
2021/08/05 11:21:53;;;;;;;0.40;0.30;;;;;;;24.51;72.30;99527.47;4992403;28;20953;-54
2021/08/05 11:24:48;;;;;;;0.40;0.30;;;;;;;25.03;72.35;99511.44;4990080;28;20876;-55
2021/08/05 11:27:19;;;;;;;0.40;0.20;;;;;;;25.08;68.91;99528.13;4985783;28;20976;-55
2021/08/05 11:29:48;;;;;;;0.50;0.47;;;;;;;25.05;67.93;99514.84;4983356;28;20453;-55
2021/08/05 11:32:21;;;;;;;0.40;0.30;;;;;;;25.66;70.37;99505.84;4982581;28;20477;-55
2021/08/05 11:35:04;;;;;;;0.50;0.50;;;;;;;26.05;68.98;99502.72;4995738;28;20543;-55
2021/08/05 11:37:32;;;;;;;0.40;0.30;;;;;;;25.81;66.63;99509.72;4992101;28;20454;-55